BTN166 VGHS-VQPR
Flight info
| Callsign | BTN166 |
|---|---|
| Flight time | 0h 44m |
| Altitude | 36000 |
| Route | TEGAK2 TEGAK DCT SDP/N0429F350 DCT BOGOP BOGOP1A |
| Aircraft | A319/M-SDE3FGHIRWY/LB1 |
Departure
| Time | 2026-05-08 12:17 |
|---|---|
| Airport | Hazrat Shahjalal International Airport (VGHS) |
Arrival
| Time | 2026-05-08 13:02 |
|---|---|
| Airport | Paro International Airport (VQPR) |
| Time | Latitude | Longitude | Altitude | Speed | Heading |
|---|---|---|---|---|---|
| 2026-05-08 12:04 | 23.84900 | 90.40292 | 30 ft | 0 kts | 43° |
| 2026-05-08 12:10 | 23.84884 | 90.40275 | 30 ft | 4 kts | 43° |
| 2026-05-08 12:11 | 23.84864 | 90.40255 | 30 ft | 4 kts | 50° |
| 2026-05-08 12:11 | 23.84852 | 90.40231 | 30 ft | 4 kts | 92° |
| 2026-05-08 12:11 | 23.84854 | 90.40221 | 30 ft | 0 kts | 143° |
| 2026-05-08 12:13 | 23.84838 | 90.40234 | 30 ft | 5 kts | 142° |
| 2026-05-08 12:13 | 23.84794 | 90.40270 | 30 ft | 10 kts | 142° |
| 2026-05-08 12:14 | 23.84720 | 90.40327 | 30 ft | 14 kts | 171° |
| 2026-05-08 12:14 | 23.84649 | 90.40246 | 30 ft | 18 kts | 227° |
| 2026-05-08 12:14 | 23.84535 | 90.40288 | 30 ft | 21 kts | 140° |
| 2026-05-08 12:14 | 23.84403 | 90.40390 | 30 ft | 26 kts | 144° |
| 2026-05-08 12:15 | 23.84240 | 90.40523 | 30 ft | 32 kts | 143° |
| 2026-05-08 12:15 | 23.84041 | 90.40675 | 31 ft | 39 kts | 147° |
| 2026-05-08 12:15 | 23.83809 | 90.40868 | 31 ft | 46 kts | 144° |
| 2026-05-08 12:15 | 23.83568 | 90.41054 | 31 ft | 31 kts | 144° |
| 2026-05-08 12:16 | 23.83449 | 90.41100 | 31 ft | 18 kts | 219° |
| 2026-05-08 12:16 | 23.83364 | 90.40972 | 31 ft | 24 kts | 237° |
| 2026-05-08 12:16 | 23.83251 | 90.40806 | 31 ft | 29 kts | 235° |
| 2026-05-08 12:16 | 23.83186 | 90.40698 | 32 ft | 8 kts | 241° |
| 2026-05-08 12:17 | 23.83253 | 90.40635 | 32 ft | 36 kts | 326° |
| 2026-05-08 12:17 | 23.83659 | 90.40310 | 33 ft | 105 kts | 323° |
| 2026-05-08 12:17 | 23.84415 | 90.39716 | 109 ft | 152 kts | 324° |
| 2026-05-08 12:17 | 23.85258 | 90.39048 | 825 ft | 149 kts | 324° |
| 2026-05-08 12:18 | 23.85997 | 90.38240 | 1416 ft | 157 kts | 295° |
| 2026-05-08 12:18 | 23.86239 | 90.37484 | 1795 ft | 164 kts | 288° |
| 2026-05-08 12:18 | 23.86952 | 90.35840 | 2171 ft | 194 kts | 300° |
| 2026-05-08 12:18 | 23.87425 | 90.34968 | 2409 ft | 206 kts | 302° |
| 2026-05-08 12:19 | 23.88196 | 90.33557 | 2887 ft | 228 kts | 301° |
| 2026-05-08 12:19 | 23.89043 | 90.31981 | 3384 ft | 253 kts | 300° |
| 2026-05-08 12:19 | 23.90255 | 90.29697 | 4443 ft | 267 kts | 299° |
| 2026-05-08 12:19 | 23.91191 | 90.27923 | 5441 ft | 271 kts | 299° |
| 2026-05-08 12:20 | 23.91827 | 90.26717 | 6120 ft | 272 kts | 299° |
| 2026-05-08 12:20 | 23.92893 | 90.24995 | 7059 ft | 274 kts | 304° |
| 2026-05-08 12:20 | 23.93994 | 90.23283 | 8011 ft | 276 kts | 304° |
| 2026-05-08 12:20 | 23.95097 | 90.21558 | 8989 ft | 277 kts | 304° |
| 2026-05-08 12:21 | 23.96206 | 90.19821 | 9931 ft | 279 kts | 304° |
| 2026-05-08 12:21 | 23.97313 | 90.18092 | 10748 ft | 283 kts | 304° |
| 2026-05-08 12:21 | 23.98450 | 90.16317 | 11546 ft | 287 kts | 303° |
| 2026-05-08 12:21 | 23.99606 | 90.14511 | 12336 ft | 292 kts | 303° |
| 2026-05-08 12:22 | 24.00779 | 90.12675 | 13051 ft | 297 kts | 303° |
| 2026-05-08 12:22 | 24.01993 | 90.10775 | 13492 ft | 313 kts | 303° |
| 2026-05-08 12:22 | 24.03266 | 90.08781 | 13946 ft | 325 kts | 302° |
| 2026-05-08 12:22 | 24.04581 | 90.06719 | 14409 ft | 334 kts | 302° |
| 2026-05-08 12:23 | 24.05919 | 90.04618 | 14937 ft | 338 kts | 302° |
| 2026-05-08 12:23 | 24.07271 | 90.02499 | 15491 ft | 341 kts | 302° |
| 2026-05-08 12:23 | 24.08631 | 90.00371 | 16050 ft | 342 kts | 302° |
| 2026-05-08 12:23 | 24.09999 | 89.98230 | 16614 ft | 344 kts | 301° |
| 2026-05-08 12:24 | 24.11373 | 89.96080 | 17199 ft | 346 kts | 301° |
| 2026-05-08 12:24 | 24.12757 | 89.93912 | 17784 ft | 348 kts | 301° |
| 2026-05-08 12:24 | 24.14147 | 89.91731 | 18357 ft | 351 kts | 301° |
| 2026-05-08 12:24 | 24.15544 | 89.89534 | 18874 ft | 353 kts | 301° |
| 2026-05-08 12:25 | 24.16949 | 89.87315 | 19400 ft | 356 kts | 300° |
| 2026-05-08 12:25 | 24.18378 | 89.85087 | 19934 ft | 360 kts | 303° |
| 2026-05-08 12:25 | 24.20058 | 89.83141 | 20515 ft | 345 kts | 314° |
| 2026-05-08 12:25 | 24.22012 | 89.81612 | 21029 ft | 346 kts | 324° |
| 2026-05-08 12:26 | 24.24145 | 89.80362 | 21248 ft | 348 kts | 326° |
| 2026-05-08 12:26 | 24.26289 | 89.79126 | 21429 ft | 349 kts | 326° |
| 2026-05-08 12:26 | 24.28438 | 89.77884 | 21595 ft | 350 kts | 326° |
| 2026-05-08 12:26 | 24.30592 | 89.76641 | 21754 ft | 351 kts | 326° |
| 2026-05-08 12:27 | 24.32754 | 89.75390 | 21907 ft | 351 kts | 326° |
| 2026-05-08 12:27 | 24.34891 | 89.74148 | 22055 ft | 352 kts | 326° |
| 2026-05-08 12:27 | 24.37057 | 89.72887 | 22205 ft | 353 kts | 326° |
| 2026-05-08 12:27 | 24.39230 | 89.71621 | 22361 ft | 354 kts | 326° |
| 2026-05-08 12:28 | 24.41410 | 89.70354 | 22513 ft | 355 kts | 326° |
| 2026-05-08 12:28 | 24.43594 | 89.69086 | 22657 ft | 356 kts | 326° |
| 2026-05-08 12:28 | 24.45770 | 89.67820 | 22999 ft | 350 kts | 326° |
| 2026-05-08 12:28 | 24.47919 | 89.66570 | 23420 ft | 352 kts | 326° |
| 2026-05-08 12:29 | 24.50107 | 89.65292 | 23772 ft | 359 kts | 326° |
| 2026-05-08 12:29 | 24.52321 | 89.63999 | 24125 ft | 362 kts | 326° |
| 2026-05-08 12:29 | 24.54527 | 89.62718 | 24447 ft | 355 kts | 325° |
| 2026-05-08 12:29 | 24.56695 | 89.61466 | 24785 ft | 349 kts | 325° |
| 2026-05-08 12:30 | 24.58822 | 89.60236 | 25121 ft | 343 kts | 324° |
| 2026-05-08 12:30 | 24.60918 | 89.59021 | 25437 ft | 337 kts | 324° |
| 2026-05-08 12:30 | 24.62986 | 89.57815 | 25779 ft | 338 kts | 323° |
| 2026-05-08 12:30 | 24.65065 | 89.56594 | 26255 ft | 340 kts | 323° |
| 2026-05-08 12:31 | 24.67156 | 89.55366 | 26737 ft | 341 kts | 322° |
| 2026-05-08 12:31 | 24.69254 | 89.54137 | 27225 ft | 342 kts | 322° |
| 2026-05-08 12:31 | 24.71360 | 89.52906 | 27738 ft | 343 kts | 323° |
| 2026-05-08 12:31 | 24.73504 | 89.51647 | 27899 ft | 355 kts | 323° |
| 2026-05-08 12:32 | 24.75718 | 89.50343 | 28031 ft | 367 kts | 323° |
| 2026-05-08 12:32 | 24.78008 | 89.48999 | 28162 ft | 379 kts | 323° |
| 2026-05-08 12:32 | 24.80373 | 89.47613 | 28291 ft | 391 kts | 323° |
| 2026-05-08 12:32 | 24.82810 | 89.46185 | 28424 ft | 402 kts | 323° |
| 2026-05-08 12:33 | 24.85306 | 89.44720 | 28552 ft | 412 kts | 323° |
| 2026-05-08 12:33 | 24.87872 | 89.43220 | 28683 ft | 421 kts | 324° |
| 2026-05-08 12:33 | 24.90453 | 89.41714 | 28823 ft | 429 kts | 324° |
| 2026-05-08 12:33 | 24.93104 | 89.40170 | 29077 ft | 433 kts | 324° |
| 2026-05-08 12:34 | 24.95778 | 89.38611 | 29385 ft | 436 kts | 323° |
| 2026-05-08 12:34 | 24.98467 | 89.37039 | 29716 ft | 439 kts | 323° |
| 2026-05-08 12:34 | 25.01173 | 89.35458 | 30020 ft | 441 kts | 323° |
| 2026-05-08 12:34 | 25.03889 | 89.33867 | 30334 ft | 443 kts | 324° |
| 2026-05-08 12:35 | 25.06616 | 89.32264 | 30625 ft | 445 kts | 324° |
| 2026-05-08 12:35 | 25.09355 | 89.30652 | 30915 ft | 447 kts | 323° |
| 2026-05-08 12:35 | 25.12100 | 89.29035 | 31208 ft | 448 kts | 323° |
| 2026-05-08 12:35 | 25.14936 | 89.27549 | 31500 ft | 459 kts | 333° |
| 2026-05-08 12:36 | 25.18120 | 89.26839 | 31887 ft | 476 kts | 349° |
| 2026-05-08 12:36 | 25.21472 | 89.27164 | 32272 ft | 493 kts | 7° |
| 2026-05-08 12:36 | 25.24805 | 89.28147 | 32629 ft | 496 kts | 9° |
| 2026-05-08 12:36 | 25.28129 | 89.29177 | 32843 ft | 497 kts | 9° |
| 2026-05-08 12:37 | 25.34784 | 89.31282 | 32864 ft | 496 kts | 9° |
| 2026-05-08 12:37 | 25.41443 | 89.33375 | 32865 ft | 496 kts | 9° |
| 2026-05-08 12:38 | 25.48087 | 89.35433 | 32864 ft | 496 kts | 9° |
| 2026-05-08 12:38 | 25.54733 | 89.37486 | 32868 ft | 496 kts | 9° |
| 2026-05-08 12:39 | 25.61379 | 89.39544 | 32858 ft | 496 kts | 9° |
| 2026-05-08 12:39 | 25.67986 | 89.41600 | 32855 ft | 496 kts | 9° |
| 2026-05-08 12:40 | 25.74603 | 89.43665 | 32764 ft | 489 kts | 9° |
| 2026-05-08 12:40 | 25.77862 | 89.44685 | 32628 ft | 484 kts | 9° |
| 2026-05-08 12:40 | 25.81091 | 89.45694 | 32511 ft | 479 kts | 9° |
| 2026-05-08 12:41 | 25.84286 | 89.46691 | 32387 ft | 475 kts | 9° |
| 2026-05-08 12:41 | 25.87459 | 89.47681 | 32264 ft | 471 kts | 9° |
| 2026-05-08 12:41 | 25.90602 | 89.48663 | 32143 ft | 467 kts | 9° |
| 2026-05-08 12:41 | 25.93718 | 89.49637 | 32029 ft | 464 kts | 9° |
| 2026-05-08 12:42 | 25.99916 | 89.51570 | 31995 ft | 462 kts | 8° |
| 2026-05-08 12:42 | 26.06102 | 89.53496 | 31953 ft | 462 kts | 8° |
| 2026-05-08 12:43 | 26.12285 | 89.55435 | 31902 ft | 461 kts | 9° |
| 2026-05-08 12:43 | 26.15396 | 89.56412 | 31217 ft | 472 kts | 9° |
| 2026-05-08 12:43 | 26.18571 | 89.57406 | 30875 ft | 471 kts | 9° |
| 2026-05-08 12:44 | 26.21686 | 89.58390 | 30748 ft | 457 kts | 9° |
| 2026-05-08 12:44 | 26.24673 | 89.59340 | 30513 ft | 449 kts | 9° |
| 2026-05-08 12:44 | 26.27653 | 89.60284 | 30264 ft | 444 kts | 9° |
| 2026-05-08 12:44 | 26.30618 | 89.61214 | 29943 ft | 440 kts | 8° |
| 2026-05-08 12:45 | 26.33556 | 89.62133 | 29480 ft | 437 kts | 9° |
| 2026-05-08 12:45 | 26.36473 | 89.63047 | 28982 ft | 434 kts | 9° |
| 2026-05-08 12:45 | 26.39373 | 89.63962 | 28486 ft | 432 kts | 9° |
| 2026-05-08 12:45 | 26.42260 | 89.64875 | 28001 ft | 429 kts | 9° |
| 2026-05-08 12:46 | 26.45132 | 89.65781 | 27511 ft | 427 kts | 9° |
| 2026-05-08 12:46 | 26.47977 | 89.66680 | 27045 ft | 424 kts | 9° |
| 2026-05-08 12:46 | 26.50809 | 89.67576 | 26588 ft | 421 kts | 10° |
| 2026-05-08 12:46 | 26.53610 | 89.68462 | 26133 ft | 417 kts | 10° |
| 2026-05-08 12:47 | 26.56394 | 89.69343 | 25687 ft | 413 kts | 10° |
| 2026-05-08 12:47 | 26.59147 | 89.70215 | 25255 ft | 409 kts | 10° |
| 2026-05-08 12:47 | 26.61869 | 89.71075 | 24821 ft | 404 kts | 11° |
| 2026-05-08 12:47 | 26.64563 | 89.71927 | 24418 ft | 400 kts | 11° |
| 2026-05-08 12:48 | 26.67191 | 89.72758 | 24001 ft | 395 kts | 11° |
| 2026-05-08 12:48 | 26.69820 | 89.73589 | 23581 ft | 390 kts | 11° |
| 2026-05-08 12:48 | 26.72439 | 89.74129 | 23105 ft | 376 kts | 355° |
| 2026-05-08 12:48 | 26.74950 | 89.73677 | 22683 ft | 358 kts | 334° |
| 2026-05-08 12:49 | 26.77140 | 89.72493 | 22291 ft | 345 kts | 327° |
| 2026-05-08 12:49 | 26.79242 | 89.71252 | 21973 ft | 337 kts | 327° |
| 2026-05-08 12:49 | 26.81292 | 89.70034 | 21669 ft | 330 kts | 327° |
| 2026-05-08 12:49 | 26.83307 | 89.68831 | 21375 ft | 324 kts | 327° |
| 2026-05-08 12:50 | 26.85279 | 89.67651 | 21077 ft | 319 kts | 327° |
| 2026-05-08 12:50 | 26.87075 | 89.66286 | 20837 ft | 306 kts | 311° |
| 2026-05-08 12:50 | 26.88510 | 89.64573 | 20545 ft | 299 kts | 308° |
| 2026-05-08 12:50 | 26.89911 | 89.62875 | 20264 ft | 295 kts | 308° |
| 2026-05-08 12:51 | 26.91276 | 89.61224 | 19980 ft | 291 kts | 308° |
| 2026-05-08 12:51 | 26.93980 | 89.57947 | 19404 ft | 279 kts | 308° |
| 2026-05-08 12:51 | 26.95285 | 89.56363 | 19132 ft | 274 kts | 308° |
| 2026-05-08 12:52 | 26.96652 | 89.54888 | 18866 ft | 274 kts | 324° |
| 2026-05-08 12:52 | 27.00340 | 89.54035 | 18498 ft | 268 kts | 350° |
| 2026-05-08 12:52 | 27.02164 | 89.53832 | 18242 ft | 259 kts | 350° |
| 2026-05-08 12:53 | 27.03932 | 89.53631 | 17972 ft | 251 kts | 350° |
| 2026-05-08 12:53 | 27.05644 | 89.53433 | 17691 ft | 245 kts | 350° |
| 2026-05-08 12:53 | 27.07325 | 89.53235 | 17307 ft | 240 kts | 350° |
| 2026-05-08 12:53 | 27.08983 | 89.53040 | 16951 ft | 239 kts | 351° |
| 2026-05-08 12:54 | 27.10616 | 89.52849 | 16592 ft | 229 kts | 351° |
| 2026-05-08 12:54 | 27.12145 | 89.52675 | 16273 ft | 214 kts | 351° |
| 2026-05-08 12:54 | 27.13592 | 89.52507 | 15922 ft | 205 kts | 351° |
| 2026-05-08 12:54 | 27.14987 | 89.52341 | 15567 ft | 199 kts | 350° |
| 2026-05-08 12:55 | 27.16347 | 89.52181 | 15211 ft | 194 kts | 351° |
| 2026-05-08 12:55 | 27.17660 | 89.52025 | 14864 ft | 190 kts | 353° |
| 2026-05-08 12:55 | 27.18965 | 89.51870 | 14529 ft | 187 kts | 353° |
| 2026-05-08 12:55 | 27.20241 | 89.51720 | 14177 ft | 182 kts | 353° |
| 2026-05-08 12:56 | 27.21495 | 89.51603 | 13833 ft | 180 kts | 358° |
| 2026-05-08 12:56 | 27.22737 | 89.51659 | 13451 ft | 178 kts | 6° |
| 2026-05-08 12:56 | 27.23951 | 89.51899 | 13084 ft | 176 kts | 14° |
| 2026-05-08 12:56 | 27.25110 | 89.52313 | 12705 ft | 174 kts | 21° |
| 2026-05-08 12:57 | 27.26196 | 89.52885 | 12340 ft | 172 kts | 29° |
| 2026-05-08 12:57 | 27.27242 | 89.53511 | 11993 ft | 168 kts | 28° |
| 2026-05-08 12:57 | 27.28265 | 89.54097 | 11728 ft | 162 kts | 24° |
| 2026-05-08 12:57 | 27.29349 | 89.54381 | 11454 ft | 160 kts | 4° |
| 2026-05-08 12:58 | 27.30446 | 89.54254 | 11210 ft | 158 kts | 345° |
| 2026-05-08 12:58 | 27.31451 | 89.53771 | 10977 ft | 156 kts | 328° |
| 2026-05-08 12:58 | 27.32267 | 89.52992 | 10725 ft | 154 kts | 309° |
| 2026-05-08 12:58 | 27.32738 | 89.51927 | 10475 ft | 153 kts | 285° |
| 2026-05-08 12:59 | 27.32783 | 89.50720 | 10113 ft | 158 kts | 264° |
| 2026-05-08 12:59 | 27.32667 | 89.49464 | 9635 ft | 164 kts | 271° |
| 2026-05-08 12:59 | 27.32903 | 89.48192 | 9110 ft | 168 kts | 290° |
| 2026-05-08 12:59 | 27.33664 | 89.47258 | 8707 ft | 164 kts | 331° |
| 2026-05-08 13:00 | 27.34674 | 89.46699 | 8384 ft | 163 kts | 336° |
| 2026-05-08 13:00 | 27.35719 | 89.46302 | 8122 ft | 156 kts | 347° |
| 2026-05-08 13:00 | 27.36751 | 89.46064 | 7932 ft | 148 kts | 348° |
| 2026-05-08 13:00 | 27.37677 | 89.45638 | 7892 ft | 146 kts | 326° |
| 2026-05-08 13:01 | 27.38167 | 89.44659 | 7833 ft | 149 kts | 279° |
| 2026-05-08 13:01 | 27.38579 | 89.43625 | 7598 ft | 149 kts | 322° |
| 2026-05-08 13:01 | 27.39453 | 89.43030 | 7376 ft | 148 kts | 331° |
| 2026-05-08 13:01 | 27.40248 | 89.42518 | 7315 ft | 99 kts | 330° |
| 2026-05-08 13:02 | 27.40570 | 89.42315 | 7323 ft | 14 kts | 326° |
| 2026-05-08 13:02 | 27.40579 | 89.42225 | 7320 ft | 0 kts | 244° |
| 2026-05-08 13:03 | 27.40581 | 89.42200 | 7321 ft | 3 kts | 313° |
| 2026-05-08 13:03 | 27.40584 | 89.42185 | 7320 ft | 3 kts | 246° |
| 2026-05-08 13:03 | 27.40564 | 89.42143 | 7320 ft | 2 kts | 239° |
| 2026-05-08 13:03 | 27.40563 | 89.42142 | 7320 ft | 0 kts | 239° |